createdAt,value
2019-05-19T00:00:28.237Z,29.87
2019-05-19T00:02:56.468Z,29.90
2019-05-19T00:05:25.730Z,31.23
2019-05-19T00:07:55.121Z,31.37
2019-05-19T00:10:24.892Z,30.87
2019-05-19T00:12:53.005Z,30.70
2019-05-19T00:15:21.300Z,31.30
2019-05-19T00:17:49.481Z,32.83
2019-05-19T00:20:17.721Z,33.00
2019-05-19T00:22:45.935Z,34.33
2019-05-19T00:25:14.129Z,32.10
2019-05-19T00:27:42.525Z,31.53
2019-05-19T00:30:13.264Z,32.33
2019-05-19T00:32:42.426Z,32.50
2019-05-19T00:35:11.428Z,35.17
2019-05-19T00:37:39.543Z,33.93
2019-05-19T00:40:08.201Z,32.97
2019-05-19T00:42:36.311Z,33.50
2019-05-19T00:45:05.174Z,33.63
2019-05-19T00:47:33.444Z,33.80
2019-05-19T00:50:01.493Z,34.67
2019-05-19T00:52:30.154Z,34.03
2019-05-19T00:54:58.363Z,32.70
2019-05-19T00:57:26.962Z,32.73
2019-05-19T00:59:57.184Z,33.40
2019-05-19T01:02:26.231Z,33.13
2019-05-19T01:04:54.847Z,34.73
2019-05-19T01:07:23.109Z,34.07
2019-05-19T01:09:53.073Z,32.37
2019-05-19T01:12:21.326Z,34.53
2019-05-19T01:14:50.820Z,34.37
2019-05-19T01:17:20.378Z,33.83
2019-05-19T01:19:55.940Z,33.33
2019-05-19T01:22:24.113Z,33.70
2019-05-19T01:24:53.496Z,32.90
2019-05-19T01:27:25.587Z,32.83
2019-05-19T01:29:55.226Z,32.60
2019-05-19T01:32:24.601Z,32.77
2019-05-19T01:34:52.763Z,33.50
2019-05-19T01:37:21.142Z,32.30
2019-05-19T01:39:50.191Z,32.93
2019-05-19T01:42:19.324Z,31.73
2019-05-19T01:44:47.447Z,33.80
2019-05-19T01:47:15.954Z,33.67
2019-05-19T01:49:44.982Z,31.93
2019-05-19T01:52:13.840Z,30.77
2019-05-19T01:54:41.985Z,30.53
2019-05-19T01:57:11.043Z,31.13
2019-05-19T01:59:40.020Z,31.17
2019-05-19T02:02:08.118Z,31.37
2019-05-19T02:04:36.354Z,31.10
2019-05-19T02:07:04.575Z,30.00
2019-05-19T02:09:33.668Z,29.97
2019-05-19T02:12:01.890Z,29.30
2019-05-19T02:14:30.250Z,28.20
2019-05-19T02:17:00.039Z,27.27
2019-05-19T02:19:28.094Z,27.13
2019-05-19T02:21:56.737Z,29.10
2019-05-19T02:24:24.791Z,27.37
2019-05-19T02:26:54.545Z,26.63
2019-05-19T02:29:22.666Z,25.77
2019-05-19T02:31:52.029Z,25.37
2019-05-19T02:34:20.807Z,25.60
2019-05-19T02:36:49.275Z,23.77
2019-05-19T02:39:17.429Z,24.93
2019-05-19T02:41:47.396Z,24.17
2019-05-19T02:44:17.091Z,23.83
2019-05-19T02:46:46.374Z,25.07
2019-05-19T02:49:16.166Z,24.60
2019-05-19T02:51:45.888Z,23.50
2019-05-19T02:54:14.180Z,23.67
2019-05-19T02:56:44.716Z,22.80
2019-05-19T02:59:13.559Z,22.60
2019-05-19T03:02:04.518Z,21.83
2019-05-19T03:04:32.654Z,23.07
2019-05-19T03:07:00.776Z,22.33
2019-05-19T03:09:28.960Z,21.87
2019-05-19T03:11:58.167Z,21.90
2019-05-19T03:14:26.288Z,23.30
2019-05-19T03:16:54.637Z,21.97
2019-05-19T03:19:22.718Z,22.70
2019-05-19T03:21:51.836Z,22.37
2019-05-19T03:24:20.004Z,23.30
2019-05-19T03:26:48.136Z,21.37
2019-05-19T03:29:19.577Z,22.37
2019-05-19T03:31:54.891Z,22.70
2019-05-19T03:34:23.553Z,21.80
2019-05-19T03:36:51.609Z,20.40
2019-05-19T03:39:22.405Z,22.07
2019-05-19T03:41:50.451Z,20.53
2019-05-19T03:44:18.562Z,20.60
2019-05-19T03:46:47.603Z,19.57
2019-05-19T03:49:16.430Z,20.63
2019-05-19T03:51:44.583Z,20.13
2019-05-19T03:54:13.225Z,19.30
2019-05-19T03:56:42.379Z,20.13
2019-05-19T03:59:11.475Z,21.13
2019-05-19T04:01:39.643Z,21.20
2019-05-19T04:04:07.825Z,19.90
2019-05-19T04:06:35.922Z,19.57
2019-05-19T04:09:04.945Z,20.93
2019-05-19T04:11:32.991Z,19.97
2019-05-19T04:14:01.182Z,19.83
2019-05-19T04:16:29.606Z,19.10
2019-05-19T04:18:57.610Z,18.63
2019-05-19T04:21:26.201Z,18.53
2019-05-19T04:23:55.805Z,18.13
2019-05-19T04:26:24.713Z,17.67
2019-05-19T04:28:53.720Z,17.67
2019-05-19T04:31:21.795Z,16.97
2019-05-19T04:33:49.812Z,17.10
2019-05-19T04:36:19.219Z,18.03
2019-05-19T04:38:47.331Z,18.10
2019-05-19T04:41:15.394Z,18.17
2019-05-19T04:43:43.449Z,17.93
2019-05-19T04:46:12.530Z,17.30
2019-05-19T04:48:42.004Z,18.13
2019-05-19T04:51:10.142Z,17.17
2019-05-19T04:53:38.658Z,16.03
2019-05-19T04:56:07.584Z,17.23
2019-05-19T04:58:35.635Z,16.70
2019-05-19T05:01:03.712Z,17.03
2019-05-19T05:03:33.602Z,16.63
2019-05-19T05:06:03.477Z,17.57
2019-05-19T05:08:31.546Z,15.77
2019-05-19T05:11:00.853Z,16.00
2019-05-19T05:13:29.097Z,15.43
2019-05-19T05:15:57.166Z,16.43
2019-05-19T05:18:26.328Z,16.97
2019-05-19T05:20:55.164Z,16.50
2019-05-19T05:23:23.318Z,16.17
2019-05-19T05:25:51.431Z,15.43
2019-05-19T05:28:23.863Z,14.90
2019-05-19T05:30:52.357Z,16.43
2019-05-19T05:33:20.634Z,15.90
2019-05-19T05:35:48.826Z,14.83
2019-05-19T05:38:17.897Z,15.00
2019-05-19T05:40:46.266Z,15.17
2019-05-19T05:43:15.318Z,16.07
2019-05-19T05:45:44.333Z,15.30
2019-05-19T05:48:12.356Z,14.17
2019-05-19T05:50:40.728Z,15.57
2019-05-19T05:53:10.282Z,14.30
2019-05-19T05:55:38.829Z,16.03
2019-05-19T05:58:08.460Z,15.07
2019-05-19T06:00:36.715Z,15.47
2019-05-19T06:03:07.087Z,15.83
2019-05-19T06:05:37.024Z,15.90
2019-05-19T06:08:05.254Z,16.20
2019-05-19T06:10:33.377Z,15.00
2019-05-19T06:13:01.570Z,16.40
2019-05-19T06:15:29.737Z,15.47
2019-05-19T06:17:57.857Z,16.40
2019-05-19T06:20:25.881Z,15.60
2019-05-19T06:22:56.981Z,15.60
2019-05-19T06:25:26.749Z,15.70
2019-05-19T06:27:56.665Z,15.43
2019-05-19T06:30:24.706Z,15.90
2019-05-19T06:32:54.880Z,15.23
2019-05-19T06:35:23.021Z,14.67
2019-05-19T06:37:51.818Z,16.17
2019-05-19T06:40:21.451Z,14.97
2019-05-19T06:42:49.631Z,15.77
2019-05-19T06:45:18.908Z,17.03
2019-05-19T06:47:48.432Z,16.00
2019-05-19T06:50:28.841Z,15.83
2019-05-19T06:53:12.697Z,15.57
2019-05-19T06:55:26.995Z,16.57
2019-05-19T06:57:55.272Z,16.87
2019-05-19T07:00:23.833Z,15.13
2019-05-19T07:02:52.648Z,15.83
2019-05-19T07:05:21.649Z,16.37
2019-05-19T07:07:50.206Z,15.33
2019-05-19T07:10:19.245Z,15.77
2019-05-19T07:12:47.330Z,15.97
2019-05-19T07:15:15.782Z,15.00
2019-05-19T07:17:44.097Z,14.97
2019-05-19T07:20:12.757Z,15.57
2019-05-19T07:22:42.180Z,14.30
2019-05-19T07:25:10.182Z,14.27
2019-05-19T07:27:38.321Z,15.00
2019-05-19T07:30:07.167Z,13.43
2019-05-19T07:32:35.341Z,15.03
2019-05-19T07:35:03.415Z,14.20
2019-05-19T07:37:31.697Z,14.30
2019-05-19T07:39:59.846Z,14.20
2019-05-19T07:42:38.535Z,14.63
2019-05-19T07:45:06.972Z,13.53
2019-05-19T07:47:35.063Z,13.50
2019-05-19T07:50:03.909Z,13.13
2019-05-19T07:52:32.461Z,13.20
2019-05-19T07:55:00.430Z,11.97
2019-05-19T07:57:28.501Z,13.93
2019-05-19T07:59:56.542Z,11.90
2019-05-19T08:02:24.729Z,12.97
2019-05-19T08:04:52.836Z,11.93
2019-05-19T08:10:30.545Z,11.57
2019-05-19T08:12:58.942Z,11.47
2019-05-19T08:15:27.112Z,11.13
2019-05-19T08:17:55.425Z,10.63
2019-05-19T08:20:23.632Z,11.30
2019-05-19T08:22:51.861Z,11.43
2019-05-19T08:25:20.366Z,11.23
2019-05-19T08:27:48.583Z,11.00
2019-05-19T08:30:16.783Z,10.93
2019-05-19T08:32:44.979Z,11.40
2019-05-19T08:35:13.152Z,10.73
2019-05-19T08:37:41.220Z,11.50
2019-05-19T08:40:09.771Z,10.50
2019-05-19T08:42:38.556Z,11.43
2019-05-19T08:45:07.265Z,11.20
2019-05-19T08:47:35.847Z,11.27
2019-05-19T08:50:04.824Z,10.67
2019-05-19T08:55:43.178Z,10.40
2019-05-19T08:58:12.147Z,10.57
2019-05-19T09:00:40.851Z,10.80
2019-05-19T09:03:09.408Z,10.67
2019-05-19T09:05:37.711Z,10.37
2019-05-19T09:08:06.432Z,10.67
2019-05-19T09:10:34.592Z,11.57
2019-05-19T09:13:02.688Z,10.50
2019-05-19T09:15:30.836Z,11.30
2019-05-19T09:17:58.918Z,10.83
2019-05-19T09:20:27.030Z,10.70
2019-05-19T09:22:55.042Z,10.97
2019-05-19T09:25:25.619Z,11.73
2019-05-19T09:27:52.995Z,10.10
2019-05-19T09:30:21.253Z,10.30
2019-05-19T09:32:49.327Z,10.23
2019-05-19T09:35:17.504Z,9.17
2019-05-19T09:37:45.680Z,9.80
2019-05-19T09:40:13.924Z,9.37
2019-05-19T09:42:42.129Z,10.33
2019-05-19T09:45:10.875Z,10.27
2019-05-19T09:47:39.925Z,10.47
2019-05-19T09:50:09.180Z,10.40
2019-05-19T09:52:38.166Z,9.60
2019-05-19T09:55:27.701Z,10.37
2019-05-19T09:57:56.776Z,8.77
2019-05-19T10:00:25.013Z,8.90
2019-05-19T10:02:53.113Z,8.20
2019-05-19T10:05:21.613Z,8.60
2019-05-19T10:07:50.200Z,8.03
2019-05-19T10:10:23.173Z,9.10
2019-05-19T10:12:51.526Z,8.43
2019-05-19T10:15:19.724Z,9.27
2019-05-19T10:17:48.419Z,9.00
2019-05-19T10:20:17.708Z,8.53
2019-05-19T10:22:45.733Z,8.70
2019-05-19T10:25:22.963Z,8.60
2019-05-19T10:27:43.911Z,7.83
2019-05-19T10:30:12.648Z,8.43
2019-05-19T10:32:40.820Z,8.70
2019-05-19T10:35:08.930Z,8.27
2019-05-19T10:37:37.116Z,8.27
2019-05-19T10:40:05.879Z,7.97
2019-05-19T10:42:33.965Z,7.50
2019-05-19T10:45:02.003Z,8.30
2019-05-19T10:47:30.120Z,8.20
2019-05-19T10:49:58.175Z,8.20
2019-05-19T10:52:26.255Z,8.00
2019-05-19T10:54:54.385Z,8.77
2019-05-19T10:57:22.582Z,7.90
2019-05-19T10:59:50.720Z,8.37
2019-05-19T11:02:18.757Z,7.77
2019-05-19T11:04:46.791Z,7.70
2019-05-19T11:07:14.890Z,8.47
2019-05-19T11:09:43.957Z,7.37
2019-05-19T11:12:12.027Z,6.87
2019-05-19T11:14:40.098Z,6.60
2019-05-19T11:17:08.275Z,7.50
2019-05-19T11:19:36.429Z,7.50
2019-05-19T11:22:04.631Z,7.40
2019-05-19T11:24:32.840Z,7.40
2019-05-19T11:27:00.876Z,8.13
2019-05-19T11:29:29.170Z,7.77
2019-05-19T11:31:57.283Z,7.60
2019-05-19T11:34:25.316Z,7.53
2019-05-19T11:36:54.081Z,7.57
2019-05-19T11:39:22.215Z,7.33
2019-05-19T11:41:50.350Z,8.00
2019-05-19T11:44:18.291Z,7.57
2019-05-19T11:46:46.327Z,7.57
2019-05-19T11:49:14.418Z,8.77
2019-05-19T11:51:42.463Z,9.20
2019-05-19T11:54:10.540Z,8.67
2019-05-19T11:56:38.569Z,8.53
2019-05-19T11:59:06.657Z,8.60
2019-05-19T12:01:34.768Z,9.17
2019-05-19T12:04:02.865Z,8.03
2019-05-19T12:06:39.258Z,8.87
2019-05-19T12:09:00.623Z,8.43
2019-05-19T12:11:28.676Z,8.93
2019-05-19T12:13:56.712Z,8.07
2019-05-19T12:16:24.782Z,8.43
2019-05-19T12:18:52.847Z,8.33
2019-05-19T12:21:20.878Z,8.27
2019-05-19T12:23:48.919Z,8.43
2019-05-19T12:26:23.111Z,8.43
2019-05-19T12:28:46.722Z,7.40
2019-05-19T12:31:14.750Z,8.80
2019-05-19T12:33:51.538Z,8.10
2019-05-19T12:36:12.880Z,8.30
2019-05-19T12:38:40.939Z,8.00
2019-05-19T12:41:08.965Z,8.50
2019-05-19T12:43:37.123Z,8.80
2019-05-19T12:46:15.480Z,7.90
2019-05-19T12:48:34.951Z,9.07
2019-05-19T12:51:02.967Z,8.67
2019-05-19T12:53:31.113Z,8.13
2019-05-19T12:55:59.188Z,8.63
2019-05-19T13:01:37.096Z,8.30
2019-05-19T13:04:05.286Z,8.90
2019-05-19T13:06:33.315Z,8.97
2019-05-19T13:09:01.464Z,8.50
2019-05-19T13:11:53.228Z,7.90
2019-05-19T13:14:21.417Z,8.57
2019-05-19T13:16:49.452Z,7.83
2019-05-19T13:19:17.536Z,8.00
2019-05-19T13:21:45.579Z,8.67
2019-05-19T13:24:13.638Z,9.00
2019-05-19T13:26:55.661Z,9.37
2019-05-19T13:29:11.438Z,10.83
2019-05-19T13:31:39.597Z,10.17
2019-05-19T13:34:07.648Z,9.87
2019-05-19T13:36:35.698Z,10.27
2019-05-19T13:39:04.505Z,8.93
2019-05-19T13:41:32.579Z,8.97
2019-05-19T13:44:01.622Z,8.97
2019-05-19T13:46:29.855Z,9.30
2019-05-19T13:48:57.922Z,9.50
2019-05-19T13:51:25.975Z,10.20
2019-05-19T13:53:54.311Z,9.57
2019-05-19T13:56:22.782Z,9.27
2019-05-19T13:58:50.833Z,9.80
2019-05-19T14:01:28.203Z,9.57
2019-05-19T14:03:52.164Z,9.63
2019-05-19T14:06:19.957Z,8.50
2019-05-19T14:08:48.033Z,8.50
2019-05-19T14:11:16.698Z,8.97
2019-05-19T14:13:44.843Z,9.50
2019-05-19T14:16:12.808Z,8.93
2019-05-19T14:18:40.912Z,8.00
2019-05-19T14:21:09.005Z,9.60
2019-05-19T14:23:37.133Z,8.27
2019-05-19T14:26:05.182Z,9.30
2019-05-19T14:28:33.238Z,8.93
2019-05-19T14:31:01.297Z,9.57
2019-05-19T14:33:29.393Z,8.57
2019-05-19T14:35:57.649Z,9.00
2019-05-19T14:38:25.707Z,8.70
2019-05-19T14:40:53.762Z,9.37
2019-05-19T14:43:22.543Z,9.07
2019-05-19T14:45:50.728Z,9.97
2019-05-19T14:48:19.202Z,9.23
2019-05-19T14:50:47.217Z,8.43
2019-05-19T14:53:15.207Z,8.87
2019-05-19T14:55:43.247Z,8.87
2019-05-19T14:58:11.266Z,8.87
2019-05-19T15:00:39.364Z,8.00
2019-05-19T15:03:07.478Z,8.43
2019-05-19T15:05:36.506Z,8.77
2019-05-19T15:08:05.016Z,8.17
2019-05-19T15:10:33.981Z,8.60
2019-05-19T15:13:02.808Z,9.07
2019-05-19T15:15:30.881Z,8.50
2019-05-19T15:17:58.939Z,8.23
2019-05-19T15:20:27.678Z,8.70
2019-05-19T15:26:06.249Z,8.37
2019-05-19T15:31:55.924Z,8.07
2019-05-19T15:37:45.777Z,7.80
2019-05-19T15:40:14.099Z,8.50
2019-05-19T15:42:42.320Z,8.07
2019-05-19T15:48:20.405Z,7.87
2019-05-19T15:50:48.701Z,8.57
2019-05-19T15:53:16.945Z,8.30
2019-05-19T15:55:45.017Z,8.43
2019-05-19T15:58:16.593Z,8.50
2019-05-19T16:00:43.489Z,9.10
2019-05-19T16:03:12.347Z,9.00
2019-05-19T16:05:40.984Z,8.83
2019-05-19T16:08:09.280Z,8.47
2019-05-19T16:10:37.608Z,8.93
2019-05-19T16:13:05.734Z,9.20
2019-05-19T16:15:34.319Z,7.80
2019-05-19T16:18:02.517Z,8.83
2019-05-19T16:20:30.917Z,8.20
2019-05-19T16:23:20.013Z,8.90
2019-05-19T16:25:48.256Z,8.70
2019-05-19T16:28:28.658Z,8.13
2019-05-19T16:30:46.017Z,8.23
2019-05-19T16:33:14.114Z,8.43
2019-05-19T16:35:42.153Z,7.90
2019-05-19T16:38:10.313Z,7.63
2019-05-19T16:40:38.871Z,7.27
2019-05-19T16:43:07.753Z,7.63
2019-05-19T16:45:36.215Z,7.67
2019-05-19T16:48:04.673Z,7.70
2019-05-19T16:50:32.898Z,7.97
2019-05-19T16:53:01.211Z,8.10
2019-05-19T16:55:30.555Z,8.30
2019-05-19T16:57:58.990Z,7.17
2019-05-19T17:00:28.543Z,7.90
2019-05-19T17:02:57.671Z,7.60
2019-05-19T17:05:26.596Z,8.57
2019-05-19T17:07:56.400Z,8.33
2019-05-19T17:10:25.365Z,8.00
2019-05-19T17:12:54.085Z,8.27
2019-05-19T17:15:22.568Z,8.60
2019-05-19T17:17:51.244Z,8.47
2019-05-19T17:20:21.859Z,8.43
2019-05-19T17:22:50.629Z,7.87
2019-05-19T17:25:19.888Z,8.30
2019-05-19T17:27:48.578Z,8.13
2019-05-19T17:30:17.588Z,8.73
2019-05-19T17:32:46.799Z,8.10
2019-05-19T17:35:15.987Z,8.60
2019-05-19T17:37:45.317Z,8.47
2019-05-19T17:40:34.399Z,8.80
2019-05-19T17:43:03.085Z,8.70
2019-05-19T17:45:31.331Z,8.77
2019-05-19T17:48:09.583Z,7.93
2019-05-19T17:50:33.600Z,8.67
2019-05-19T17:53:02.764Z,8.50
2019-05-19T17:55:33.153Z,9.50
2019-05-19T17:58:01.899Z,9.27
2019-05-19T18:00:38.098Z,9.17
2019-05-19T18:03:07.346Z,8.70
2019-05-19T18:05:36.333Z,9.40
2019-05-19T18:08:05.617Z,8.47
2019-05-19T18:10:34.180Z,9.27
2019-05-19T18:13:03.458Z,9.00
2019-05-19T18:15:31.869Z,9.87
2019-05-19T18:18:00.274Z,8.83
2019-05-19T18:20:28.848Z,9.13
2019-05-19T18:22:57.339Z,9.13
2019-05-19T18:25:25.837Z,8.73
2019-05-19T18:27:55.083Z,10.07
2019-05-19T18:30:23.908Z,9.10
2019-05-19T18:36:01.590Z,9.77
2019-05-19T18:38:30.352Z,9.93
2019-05-19T18:40:58.661Z,9.87
2019-05-19T18:43:27.937Z,9.97
2019-05-19T18:45:56.785Z,10.47
2019-05-19T18:48:26.009Z,9.80
2019-05-19T18:50:55.290Z,10.10
2019-05-19T18:53:24.150Z,9.93
2019-05-19T18:55:53.562Z,10.20
2019-05-19T18:58:22.840Z,10.03
2019-05-19T19:00:52.672Z,9.83
2019-05-19T19:03:21.423Z,10.27
2019-05-19T19:05:51.029Z,10.03
2019-05-19T19:08:19.920Z,9.40
2019-05-19T19:10:48.707Z,10.00
2019-05-19T19:13:16.814Z,9.73
2019-05-19T19:15:45.916Z,9.23
2019-05-19T19:18:15.124Z,10.30
2019-05-19T19:20:43.905Z,9.80
2019-05-19T19:23:12.278Z,9.93
2019-05-19T19:25:40.798Z,10.47
2019-05-19T19:28:09.260Z,10.30
2019-05-19T19:30:37.894Z,10.97
2019-05-19T19:33:06.544Z,10.43
2019-05-19T19:35:39.337Z,9.97
2019-05-19T19:38:05.564Z,10.77
2019-05-19T19:40:34.667Z,10.10
2019-05-19T19:43:04.184Z,10.50
2019-05-19T19:45:33.038Z,10.90
2019-05-19T19:48:02.843Z,10.13
2019-05-19T19:50:32.246Z,11.10
2019-05-19T19:53:01.215Z,11.30
2019-05-19T19:55:29.928Z,11.33
2019-05-19T19:57:58.310Z,11.17
2019-05-19T20:00:45.728Z,10.90
2019-05-19T20:03:15.028Z,11.60
2019-05-19T20:05:44.077Z,11.33
2019-05-19T20:08:13.263Z,12.33
2019-05-19T20:10:42.566Z,12.00
2019-05-19T20:13:13.491Z,12.40
2019-05-19T20:15:42.261Z,11.40
2019-05-19T20:18:12.593Z,12.73
2019-05-19T20:20:41.974Z,11.50
2019-05-19T20:23:13.358Z,11.63
2019-05-19T20:25:42.777Z,12.00
2019-05-19T20:28:12.021Z,12.40
2019-05-19T20:30:41.428Z,12.63
2019-05-19T20:33:09.658Z,11.90
2019-05-19T20:35:38.682Z,13.50
2019-05-19T20:38:07.673Z,13.20
2019-05-19T20:40:36.345Z,13.17
2019-05-19T20:43:05.425Z,12.43
2019-05-19T20:45:34.721Z,12.83
2019-05-19T20:48:03.463Z,12.47
2019-05-19T20:50:31.652Z,13.57
2019-05-19T20:52:59.856Z,13.27
2019-05-19T20:55:28.233Z,14.07
2019-05-19T20:57:56.606Z,13.40
2019-05-19T21:00:24.704Z,13.00
2019-05-19T21:02:53.035Z,13.43
2019-05-19T21:05:21.399Z,14.33
2019-05-19T21:07:50.233Z,14.20
2019-05-19T21:10:18.622Z,15.37
2019-05-19T21:12:47.721Z,15.50
2019-05-19T21:15:16.774Z,16.13
2019-05-19T21:17:44.819Z,16.63
2019-05-19T21:20:13.106Z,17.37
2019-05-19T21:22:41.356Z,18.10
2019-05-19T21:25:09.941Z,17.50
2019-05-19T21:27:39.159Z,18.20
2019-05-19T21:30:08.266Z,18.83
2019-05-19T21:32:36.497Z,17.90
2019-05-19T21:35:04.941Z,18.93
2019-05-19T21:37:33.743Z,19.23
2019-05-19T21:40:03.297Z,19.40
2019-05-19T21:42:32.437Z,18.47
2019-05-19T21:45:02.094Z,18.00
2019-05-19T21:47:32.046Z,19.20
2019-05-19T21:50:00.183Z,18.03
2019-05-19T21:52:28.488Z,17.40
2019-05-19T21:54:57.643Z,19.00
2019-05-19T21:57:27.178Z,17.67
2019-05-19T21:59:56.393Z,18.50
2019-05-19T22:02:24.603Z,18.97
2019-05-19T22:04:53.069Z,18.93
2019-05-19T22:07:34.712Z,19.47
2019-05-19T22:10:03.453Z,19.27
2019-05-19T22:12:32.928Z,19.43
2019-05-19T22:15:01.638Z,20.07
2019-05-19T22:17:29.809Z,19.80
2019-05-19T22:19:58.674Z,19.23
2019-05-19T22:22:26.718Z,19.90
2019-05-19T22:24:54.746Z,19.03
2019-05-19T22:27:22.899Z,20.10
2019-05-19T22:29:51.095Z,20.43
2019-05-19T22:32:20.094Z,19.70
2019-05-19T22:34:48.219Z,20.30
2019-05-19T22:37:16.399Z,20.70
2019-05-19T22:39:45.643Z,20.03
2019-05-19T22:42:13.680Z,20.37
2019-05-19T22:44:41.756Z,20.73
2019-05-19T22:47:09.826Z,20.97
2019-05-19T22:49:37.927Z,20.97
2019-05-19T22:52:05.994Z,20.47
2019-05-19T22:54:34.378Z,21.77
2019-05-19T22:57:02.527Z,21.60
2019-05-19T22:59:30.636Z,21.83
2019-05-19T23:01:58.843Z,22.17
2019-05-19T23:04:26.938Z,20.77
2019-05-19T23:06:55.007Z,22.00
2019-05-19T23:09:24.421Z,20.33
2019-05-19T23:11:53.166Z,21.70
2019-05-19T23:14:21.593Z,22.57
2019-05-19T23:16:50.825Z,22.13
2019-05-19T23:19:18.942Z,24.33
2019-05-19T23:21:47.546Z,23.57
2019-05-19T23:24:15.598Z,23.80
2019-05-19T23:26:44.518Z,23.43
2019-05-19T23:29:13.442Z,24.63
2019-05-19T23:31:42.555Z,24.97
2019-05-19T23:34:11.199Z,24.07
2019-05-19T23:36:39.702Z,23.97
2019-05-19T23:39:08.736Z,24.40
2019-05-19T23:41:37.611Z,24.47
2019-05-19T23:44:05.758Z,23.83
2019-05-19T23:46:34.759Z,24.20
2019-05-19T23:49:02.899Z,23.83
2019-05-19T23:51:30.956Z,25.53
2019-05-19T23:53:59.552Z,24.00
2019-05-19T23:56:28.456Z,25.03
2019-05-19T23:58:56.492Z,23.43
